createdAt,value
2017-09-28T00:00:45.066Z,16.43
2017-09-28T00:03:13.362Z,16.27
2017-09-28T00:05:42.435Z,14.50
2017-09-28T00:08:10.802Z,20.60
2017-09-28T00:10:39.076Z,14.90
2017-09-28T00:13:07.354Z,19.40
2017-09-28T00:15:35.645Z,15.70
2017-09-28T00:18:03.928Z,19.33
2017-09-28T00:20:32.395Z,22.40
2017-09-28T00:23:00.672Z,14.77
2017-09-28T00:25:28.952Z,21.40
2017-09-28T00:27:57.431Z,17.13
2017-09-28T00:30:25.693Z,18.40
2017-09-28T00:32:54.090Z,16.77
2017-09-28T00:35:22.366Z,16.20
2017-09-28T00:37:50.642Z,17.33
2017-09-28T00:40:18.933Z,19.63
2017-09-28T00:42:47.292Z,18.47
2017-09-28T00:45:15.607Z,15.60
2017-09-28T00:47:44.652Z,15.80
2017-09-28T00:50:12.929Z,20.40
2017-09-28T00:52:41.214Z,17.03
2017-09-28T00:55:09.598Z,20.57
2017-09-28T00:57:37.985Z,15.87
2017-09-28T01:00:07.017Z,16.77
2017-09-28T01:02:35.306Z,16.13
2017-09-28T01:05:03.601Z,14.20
2017-09-28T01:07:31.905Z,17.13
2017-09-28T01:10:00.225Z,15.63
2017-09-28T01:12:29.276Z,19.03
2017-09-28T01:14:57.572Z,15.87
2017-09-28T01:17:25.861Z,18.67
2017-09-28T01:19:54.901Z,14.87
2017-09-28T01:22:23.209Z,18.17
2017-09-28T01:24:51.499Z,17.20
2017-09-28T01:27:19.878Z,15.20
2017-09-28T01:29:48.945Z,15.70
2017-09-28T01:32:17.236Z,16.27
2017-09-28T01:34:45.621Z,14.70
2017-09-28T01:37:13.906Z,15.67
2017-09-28T01:39:42.180Z,15.37
2017-09-28T01:42:10.505Z,18.80
2017-09-28T01:44:38.773Z,11.90
2017-09-28T01:47:07.094Z,15.20
2017-09-28T01:49:35.371Z,14.67
2017-09-28T01:52:03.645Z,13.93
2017-09-28T01:54:31.947Z,17.07
2017-09-28T01:57:00.312Z,14.20
2017-09-28T01:59:28.642Z,17.67
2017-09-28T02:01:57.069Z,16.60
2017-09-28T02:04:25.344Z,16.57
2017-09-28T02:06:53.630Z,17.87
2017-09-28T02:09:22.005Z,16.33
2017-09-28T02:11:50.312Z,13.23
2017-09-28T02:14:19.360Z,15.20
2017-09-28T02:16:47.639Z,14.33
2017-09-28T02:19:15.938Z,14.60
2017-09-28T02:21:44.207Z,16.33
2017-09-28T02:24:12.584Z,16.93
2017-09-28T02:26:40.870Z,14.77
2017-09-28T02:29:09.286Z,12.70
2017-09-28T02:31:38.341Z,14.83
2017-09-28T02:34:06.621Z,12.70
2017-09-28T02:36:34.924Z,12.33
2017-09-28T02:39:03.960Z,15.97
2017-09-28T02:41:32.233Z,14.73
2017-09-28T02:44:00.545Z,14.93
2017-09-28T02:46:28.825Z,12.13
2017-09-28T02:48:57.204Z,13.10
2017-09-28T02:51:26.245Z,13.80
2017-09-28T02:53:54.521Z,13.63
2017-09-28T02:56:22.823Z,18.13
2017-09-28T02:58:51.123Z,11.50
2017-09-28T03:01:19.428Z,13.13
2017-09-28T03:03:48.502Z,15.70
2017-09-28T03:06:16.769Z,11.07
2017-09-28T03:08:45.069Z,15.47
2017-09-28T03:11:13.357Z,11.43
2017-09-28T03:13:42.428Z,11.70
2017-09-28T03:16:11.623Z,14.10
2017-09-28T03:18:39.906Z,14.57
2017-09-28T03:21:08.202Z,14.83
2017-09-28T03:23:36.487Z,11.17
2017-09-28T03:26:05.555Z,15.50
2017-09-28T03:28:34.032Z,11.93
2017-09-28T03:31:02.312Z,12.10
2017-09-28T03:33:30.616Z,13.53
2017-09-28T03:35:59.667Z,12.67
2017-09-28T03:38:27.970Z,19.53
2017-09-28T03:40:56.339Z,15.53
2017-09-28T03:43:24.613Z,12.17
2017-09-28T03:45:52.904Z,14.43
2017-09-28T03:48:21.172Z,11.30
2017-09-28T03:50:49.555Z,13.03
2017-09-28T03:53:17.833Z,15.37
2017-09-28T03:55:47.635Z,15.23
2017-09-28T03:58:15.914Z,15.40
2017-09-28T04:00:44.192Z,13.40
2017-09-28T04:03:12.501Z,12.97
2017-09-28T04:05:40.849Z,14.77
2017-09-28T04:08:09.118Z,15.40
2017-09-28T04:10:37.402Z,18.00
2017-09-28T04:13:05.663Z,11.80
2017-09-28T04:15:33.982Z,14.73
2017-09-28T04:18:02.246Z,11.83
2017-09-28T04:20:30.533Z,14.73
2017-09-28T04:22:58.894Z,12.37
2017-09-28T04:25:27.277Z,15.40
2017-09-28T04:27:55.654Z,13.20
2017-09-28T04:30:23.941Z,14.03
2017-09-28T04:32:52.329Z,13.37
2017-09-28T04:35:21.403Z,16.73
2017-09-28T04:37:49.660Z,12.80
2017-09-28T04:40:17.975Z,14.40
2017-09-28T04:42:46.269Z,12.80
2017-09-28T04:45:14.545Z,16.67
2017-09-28T04:47:43.712Z,13.17
2017-09-28T04:50:11.987Z,15.40
2017-09-28T04:52:40.364Z,11.73
2017-09-28T04:55:08.643Z,14.23
2017-09-28T04:57:37.742Z,13.47
2017-09-28T05:00:06.029Z,12.63
2017-09-28T05:02:35.072Z,14.37
2017-09-28T05:05:03.385Z,14.10
2017-09-28T05:07:31.658Z,12.30
2017-09-28T05:09:59.940Z,18.27
2017-09-28T05:12:28.313Z,11.77
2017-09-28T05:14:56.584Z,13.43
2017-09-28T05:17:24.902Z,12.93
2017-09-28T05:19:53.934Z,14.80
2017-09-28T05:22:22.244Z,11.47
2017-09-28T05:24:50.627Z,14.70
2017-09-28T05:27:18.891Z,14.33
2017-09-28T05:29:47.225Z,18.53
2017-09-28T05:32:15.546Z,16.27
2017-09-28T05:34:43.905Z,15.20
2017-09-28T05:37:12.183Z,12.70
2017-09-28T05:39:40.462Z,12.40
2017-09-28T05:42:08.805Z,16.97
2017-09-28T05:44:37.077Z,15.47
2017-09-28T05:47:05.393Z,16.63
2017-09-28T05:49:33.670Z,14.13
2017-09-28T05:52:01.978Z,15.37
2017-09-28T05:54:30.242Z,11.70
2017-09-28T05:56:58.525Z,13.60
2017-09-28T05:59:26.816Z,12.60
2017-09-28T06:01:55.125Z,17.40
2017-09-28T06:04:23.437Z,18.00
2017-09-28T06:06:51.726Z,13.30
2017-09-28T06:09:20.015Z,12.30
2017-09-28T06:11:49.052Z,15.00
2017-09-28T06:14:17.487Z,12.20
2017-09-28T06:16:45.767Z,16.63
2017-09-28T06:19:14.837Z,15.00
2017-09-28T06:21:43.133Z,15.80
2017-09-28T06:24:12.221Z,14.17
2017-09-28T06:26:41.273Z,14.80
2017-09-28T06:29:09.546Z,12.90
2017-09-28T06:31:37.845Z,12.93
2017-09-28T06:34:06.121Z,12.13
2017-09-28T06:36:34.488Z,15.43
2017-09-28T06:39:02.873Z,12.93
2017-09-28T06:41:31.250Z,13.83
2017-09-28T06:43:59.542Z,13.33
2017-09-28T06:46:27.906Z,19.13
2017-09-28T06:48:56.222Z,15.77
2017-09-28T06:51:25.269Z,12.67
2017-09-28T06:53:53.557Z,15.90
2017-09-28T06:56:21.841Z,14.80
2017-09-28T06:58:50.218Z,17.10
2017-09-28T07:01:19.353Z,11.53
2017-09-28T07:03:48.381Z,14.00
2017-09-28T07:06:16.697Z,15.73
2017-09-28T07:08:44.977Z,15.53
2017-09-28T07:11:13.269Z,11.20
2017-09-28T07:13:42.349Z,12.73
2017-09-28T07:16:11.403Z,15.90
2017-09-28T07:18:39.812Z,11.97
2017-09-28T07:21:08.213Z,20.20
2017-09-28T07:23:36.482Z,12.17
2017-09-28T07:26:04.858Z,14.77
2017-09-28T07:28:33.226Z,13.10
2017-09-28T07:31:01.484Z,15.43
2017-09-28T07:33:29.986Z,15.47
2017-09-28T07:35:58.376Z,16.00
2017-09-28T07:38:26.670Z,13.17
2017-09-28T07:40:55.715Z,14.87
2017-09-28T07:43:24.121Z,18.13
2017-09-28T07:45:52.404Z,15.83
2017-09-28T07:48:20.690Z,15.03
2017-09-28T07:50:48.997Z,15.60
2017-09-28T07:53:17.325Z,14.73
2017-09-28T07:55:45.622Z,12.47
2017-09-28T07:58:13.920Z,13.23
2017-09-28T08:00:43.021Z,14.13
2017-09-28T08:03:11.327Z,12.70
2017-09-28T08:05:39.609Z,11.93
2017-09-28T08:08:08.111Z,14.33
2017-09-28T08:10:36.374Z,18.27
2017-09-28T08:13:04.678Z,14.67
2017-09-28T08:15:33.044Z,12.17
2017-09-28T08:18:01.368Z,16.53
2017-09-28T08:20:30.415Z,16.53
2017-09-28T08:22:58.797Z,17.20
2017-09-28T08:25:27.192Z,12.53
2017-09-28T08:27:55.468Z,12.17
2017-09-28T08:30:23.749Z,18.23
2017-09-28T08:32:52.038Z,14.83
2017-09-28T08:35:21.117Z,17.93
2017-09-28T08:37:50.170Z,17.40
2017-09-28T08:40:18.488Z,14.43
2017-09-28T08:42:46.869Z,13.33
2017-09-28T08:45:15.145Z,13.50
2017-09-28T08:47:43.452Z,16.63
2017-09-28T08:50:11.735Z,17.00
2017-09-28T08:52:40.057Z,13.23
2017-09-28T08:55:08.364Z,11.47
2017-09-28T08:57:36.648Z,13.80
2017-09-28T09:00:05.709Z,22.30
2017-09-28T09:02:34.001Z,17.17
2017-09-28T09:05:02.334Z,13.47
2017-09-28T09:07:30.662Z,12.20
2017-09-28T09:09:59.035Z,14.77
2017-09-28T09:12:27.324Z,12.83
2017-09-28T09:14:56.406Z,14.90
2017-09-28T09:17:24.696Z,14.17
2017-09-28T09:19:53.097Z,19.17
2017-09-28T09:22:22.162Z,15.10
2017-09-28T09:24:50.541Z,13.30
2017-09-28T09:27:18.885Z,12.83
2017-09-28T09:29:47.198Z,17.80
2017-09-28T09:32:15.486Z,11.47
2017-09-28T09:34:43.777Z,13.03
2017-09-28T09:37:12.848Z,15.23
2017-09-28T09:39:41.152Z,18.30
2017-09-28T09:42:10.209Z,17.33
2017-09-28T09:44:38.496Z,16.03
2017-09-28T09:47:06.781Z,15.23
2017-09-28T09:49:35.171Z,14.00
2017-09-28T09:52:03.541Z,16.60
2017-09-28T09:54:31.931Z,14.47
2017-09-28T09:57:00.225Z,16.97
2017-09-28T09:59:29.382Z,26.17
2017-09-28T10:01:57.661Z,15.13
2017-09-28T10:04:25.937Z,14.37
2017-09-28T10:06:59.167Z,13.83
2017-09-28T10:09:29.584Z,15.53
2017-09-28T10:12:01.325Z,15.63
2017-09-28T10:14:38.351Z,15.90
2017-09-28T10:17:06.675Z,13.57
2017-09-28T10:19:34.933Z,17.73
2017-09-28T10:22:03.204Z,14.70
2017-09-28T10:24:31.508Z,17.07
2017-09-28T10:26:59.801Z,13.20
2017-09-28T10:29:28.177Z,14.77
2017-09-28T10:31:56.549Z,16.10
2017-09-28T10:34:24.869Z,13.90
2017-09-28T10:36:53.173Z,13.57
2017-09-28T10:39:21.475Z,13.60
2017-09-28T10:41:49.789Z,14.40
2017-09-28T10:44:18.836Z,13.97
2017-09-28T10:46:47.115Z,22.10
2017-09-28T10:49:15.382Z,15.77
2017-09-28T10:51:43.692Z,13.67
2017-09-28T10:54:12.065Z,14.23
2017-09-28T10:56:40.375Z,13.60
2017-09-28T10:59:08.681Z,15.77
2017-09-28T11:01:36.985Z,12.87
2017-09-28T11:04:05.272Z,13.93
2017-09-28T11:06:33.545Z,15.13
2017-09-28T11:09:01.946Z,13.70
2017-09-28T11:11:30.208Z,13.70
2017-09-28T11:13:58.481Z,14.90
2017-09-28T11:16:26.797Z,14.03
2017-09-28T11:18:55.850Z,16.53
2017-09-28T11:21:24.153Z,19.60
2017-09-28T11:23:53.227Z,13.43
2017-09-28T11:26:21.601Z,16.17
2017-09-28T11:28:49.980Z,15.80
2017-09-28T11:31:18.380Z,16.20
2017-09-28T11:33:47.460Z,15.93
2017-09-28T11:36:15.727Z,17.57
2017-09-28T11:38:43.996Z,15.40
2017-09-28T11:41:12.296Z,15.57
2017-09-28T11:43:40.667Z,17.30
2017-09-28T11:46:08.972Z,12.50
2017-09-28T11:48:38.010Z,15.20
2017-09-28T11:51:06.322Z,14.43
2017-09-28T11:53:34.709Z,14.60
2017-09-28T11:56:02.999Z,14.80
2017-09-28T11:58:32.081Z,17.10
2017-09-28T12:01:01.130Z,14.93
2017-09-28T12:03:29.416Z,17.37
2017-09-28T12:05:57.714Z,14.17
2017-09-28T12:08:26.012Z,12.73
2017-09-28T12:10:54.326Z,18.00
2017-09-28T12:13:22.604Z,14.67
2017-09-28T12:15:50.881Z,15.00
2017-09-28T12:18:19.185Z,15.90
2017-09-28T12:20:47.476Z,19.53
2017-09-28T12:23:15.786Z,19.50
2017-09-28T12:25:44.868Z,13.70
2017-09-28T12:28:13.245Z,17.03
2017-09-28T12:30:41.543Z,14.70
2017-09-28T12:33:10.614Z,15.00
2017-09-28T12:35:38.909Z,13.60
2017-09-28T12:38:07.269Z,16.87
2017-09-28T12:40:35.656Z,13.70
2017-09-28T12:43:03.934Z,14.87
2017-09-28T12:45:32.304Z,17.27
2017-09-28T12:48:00.608Z,15.80
2017-09-28T12:50:29.664Z,17.10
2017-09-28T12:52:58.074Z,16.00
2017-09-28T12:55:26.359Z,13.53
2017-09-28T12:57:55.439Z,15.17
2017-09-28T13:00:23.745Z,15.10
2017-09-28T13:02:52.791Z,14.73
2017-09-28T13:05:21.089Z,17.23
2017-09-28T13:07:49.458Z,14.60
2017-09-28T13:10:17.787Z,12.67
2017-09-28T13:12:46.116Z,13.73
2017-09-28T13:15:15.892Z,16.80
2017-09-28T13:17:44.206Z,12.87
2017-09-28T13:20:12.482Z,15.20
2017-09-28T13:22:40.821Z,13.60
2017-09-28T13:25:09.098Z,15.83
2017-09-28T13:27:37.382Z,16.10
2017-09-28T13:30:05.692Z,22.47
2017-09-28T13:32:33.969Z,16.43
2017-09-28T13:35:02.270Z,17.13
2017-09-28T13:37:30.549Z,18.73
2017-09-28T13:39:58.861Z,15.17
2017-09-28T13:42:27.182Z,15.10
2017-09-28T13:44:55.470Z,18.60
2017-09-28T13:47:23.833Z,15.07
2017-09-28T13:49:52.111Z,15.90
2017-09-28T13:52:20.493Z,14.93
2017-09-28T13:54:48.773Z,16.00
2017-09-28T13:57:17.249Z,14.77
2017-09-28T13:59:45.560Z,15.20
2017-09-28T14:02:14.629Z,17.07
2017-09-28T14:04:42.921Z,16.73
2017-09-28T14:07:11.208Z,19.33
2017-09-28T14:09:39.560Z,18.50
2017-09-28T14:12:07.935Z,17.30
2017-09-28T14:14:36.317Z,15.10
2017-09-28T14:17:04.695Z,15.43
2017-09-28T14:19:32.980Z,38.70
2017-09-28T14:22:02.051Z,44.70
2017-09-28T14:24:30.350Z,17.07
2017-09-28T14:29:33.113Z,18.00
2017-09-28T14:32:01.628Z,15.27
2017-09-28T14:34:29.905Z,17.47
2017-09-28T14:36:58.183Z,16.20
2017-09-28T14:39:26.558Z,16.03
2017-09-28T14:41:54.945Z,17.20
2017-09-28T14:44:23.313Z,18.50
2017-09-28T14:46:51.589Z,15.13
2017-09-28T14:49:19.975Z,15.20
2017-09-28T14:51:48.246Z,16.10
2017-09-28T14:54:16.526Z,16.83
2017-09-28T14:56:44.911Z,15.70
2017-09-28T14:59:13.177Z,15.17
2017-09-28T15:01:41.461Z,17.60
2017-09-28T15:04:09.858Z,17.53
2017-09-28T15:06:38.165Z,16.63
2017-09-28T15:09:06.429Z,15.70
2017-09-28T15:11:35.471Z,18.77
2017-09-28T15:14:03.763Z,16.00
2017-09-28T15:16:32.147Z,15.70
2017-09-28T15:19:00.438Z,16.03
2017-09-28T15:21:28.705Z,15.80
2017-09-28T15:23:57.084Z,16.00
2017-09-28T15:26:26.002Z,16.97
2017-09-28T15:28:55.045Z,15.47
2017-09-28T15:31:23.363Z,15.33
2017-09-28T15:33:51.655Z,15.90
2017-09-28T15:36:20.725Z,16.60
2017-09-28T15:38:49.097Z,15.37
2017-09-28T15:41:17.383Z,18.53
2017-09-28T15:43:45.774Z,17.33
2017-09-28T15:46:14.053Z,17.77
2017-09-28T15:48:42.426Z,18.07
2017-09-28T15:51:10.692Z,16.83
2017-09-28T15:53:38.981Z,14.53
2017-09-28T15:56:07.281Z,19.03
2017-09-28T15:58:36.325Z,15.13
2017-09-28T16:01:04.657Z,13.70
2017-09-28T16:03:33.702Z,14.50
2017-09-28T16:06:01.998Z,18.80
2017-09-28T16:08:30.298Z,21.33
2017-09-28T16:10:59.356Z,18.17
2017-09-28T16:13:27.743Z,17.27
2017-09-28T16:15:56.141Z,17.13
2017-09-28T16:18:24.431Z,20.23
2017-09-28T16:20:53.490Z,15.37
2017-09-28T16:23:22.579Z,16.40
2017-09-28T16:25:50.958Z,14.67
2017-09-28T16:28:19.237Z,15.47
2017-09-28T16:30:47.519Z,14.93
2017-09-28T16:33:15.892Z,16.67
2017-09-28T16:35:44.169Z,16.17
2017-09-28T16:38:12.485Z,14.73
2017-09-28T16:40:40.769Z,14.90
2017-09-28T16:43:09.045Z,14.23
2017-09-28T16:45:37.344Z,14.60
2017-09-28T16:48:05.655Z,14.47
2017-09-28T16:50:33.982Z,17.77
2017-09-28T16:53:03.040Z,17.03
2017-09-28T16:55:31.345Z,14.97
2017-09-28T16:57:59.647Z,16.50
2017-09-28T17:00:28.730Z,18.47
2017-09-28T17:02:57.057Z,18.90
2017-09-28T17:05:26.109Z,16.37
2017-09-28T17:07:54.394Z,20.67
2017-09-28T17:10:22.875Z,15.93
2017-09-28T17:12:51.154Z,17.53
2017-09-28T17:15:19.450Z,19.13
2017-09-28T17:17:47.728Z,17.80
2017-09-28T17:20:16.839Z,20.10
2017-09-28T17:22:45.902Z,17.70
2017-09-28T17:25:14.173Z,18.17
2017-09-28T17:27:42.464Z,18.10
2017-09-28T17:30:10.829Z,15.60
2017-09-28T17:32:39.145Z,19.20
2017-09-28T17:35:08.196Z,22.23
2017-09-28T17:37:36.480Z,20.23
2017-09-28T17:40:04.768Z,20.37
2017-09-28T17:42:33.141Z,18.47
2017-09-28T17:45:01.462Z,19.10
2017-09-28T17:47:29.823Z,17.33
2017-09-28T17:49:58.108Z,20.03
2017-09-28T17:52:27.268Z,19.37
2017-09-28T17:54:55.554Z,16.00
2017-09-28T17:57:25.381Z,18.10
2017-09-28T17:59:54.433Z,18.60
2017-09-28T18:02:22.751Z,18.27
2017-09-28T18:04:51.181Z,18.63
2017-09-28T18:07:19.461Z,16.80
2017-09-28T18:09:47.776Z,19.77
2017-09-28T18:12:16.078Z,24.17
2017-09-28T18:14:44.349Z,22.50
2017-09-28T18:17:13.506Z,19.20
2017-09-28T18:19:41.826Z,20.07
2017-09-28T18:22:10.146Z,18.37
2017-09-28T18:24:39.186Z,17.57
2017-09-28T18:27:08.309Z,19.57
2017-09-28T18:29:36.706Z,18.60
2017-09-28T18:32:04.990Z,20.23
2017-09-28T18:34:33.297Z,17.00
2017-09-28T18:37:02.342Z,18.57
2017-09-28T18:39:30.613Z,18.53
2017-09-28T18:41:58.918Z,19.63
2017-09-28T18:44:27.205Z,17.90
2017-09-28T18:46:55.519Z,20.50
2017-09-28T18:49:23.804Z,19.10
2017-09-28T18:51:52.146Z,20.13
2017-09-28T18:54:20.510Z,25.97
2017-09-28T18:56:48.800Z,22.30
2017-09-28T18:59:17.118Z,18.20
2017-09-28T19:01:45.396Z,21.03
2017-09-28T19:04:13.666Z,20.27
2017-09-28T19:06:42.750Z,22.70
2017-09-28T19:09:11.049Z,24.17
2017-09-28T19:11:39.378Z,21.93
2017-09-28T19:14:07.649Z,22.93
2017-09-28T19:16:35.937Z,25.63
2017-09-28T19:19:04.241Z,24.77
2017-09-28T19:21:33.282Z,22.00
2017-09-28T19:24:02.372Z,22.43
2017-09-28T19:26:30.634Z,22.67
2017-09-28T19:28:58.935Z,24.20
2017-09-28T19:31:27.313Z,25.67
2017-09-28T19:33:55.621Z,26.80
2017-09-28T19:36:24.054Z,28.87
2017-09-28T19:38:52.368Z,24.10
2017-09-28T19:41:21.469Z,25.23
2017-09-28T19:43:49.792Z,22.20
2017-09-28T19:46:18.065Z,21.37
2017-09-28T19:48:46.490Z,22.07
2017-09-28T19:51:14.753Z,23.17
2017-09-28T19:53:43.029Z,22.63
2017-09-28T19:56:11.321Z,22.70
2017-09-28T19:58:39.713Z,19.40
2017-09-28T20:01:08.041Z,19.83
2017-09-28T20:03:36.325Z,24.97
2017-09-28T20:06:04.650Z,24.10
2017-09-28T20:08:32.963Z,27.20
2017-09-28T20:11:01.241Z,22.37
2017-09-28T20:13:29.569Z,23.70
2017-09-28T20:15:57.851Z,24.50
2017-09-28T20:18:26.122Z,20.83
2017-09-28T20:20:54.438Z,21.90
2017-09-28T20:23:23.485Z,24.70
2017-09-28T20:25:51.811Z,28.17
2017-09-28T20:28:20.841Z,25.63
2017-09-28T20:30:49.122Z,20.77
2017-09-28T20:33:17.418Z,20.53
2017-09-28T20:35:45.730Z,19.60
2017-09-28T20:38:15.003Z,25.97
2017-09-28T20:40:43.380Z,20.23
2017-09-28T20:43:11.641Z,22.73
2017-09-28T20:45:39.934Z,26.30
2017-09-28T20:48:08.329Z,25.50
2017-09-28T20:50:36.697Z,23.00
2017-09-28T20:53:04.985Z,23.77
2017-09-28T20:55:34.068Z,21.67
2017-09-28T20:58:02.356Z,21.00
2017-09-28T21:00:30.625Z,23.40
2017-09-28T21:02:58.941Z,22.20
2017-09-28T21:05:27.222Z,22.93
2017-09-28T21:07:55.562Z,22.97
2017-09-28T21:10:23.941Z,22.57
2017-09-28T21:12:53.049Z,24.00
2017-09-28T21:15:21.435Z,25.97
2017-09-28T21:17:50.516Z,22.13
2017-09-28T21:20:19.148Z,25.37
2017-09-28T21:22:47.459Z,22.60
2017-09-28T21:25:15.739Z,19.33
2017-09-28T21:27:44.044Z,24.43
2017-09-28T21:30:12.348Z,23.80
2017-09-28T21:32:41.440Z,24.23
2017-09-28T21:35:10.557Z,22.93
2017-09-28T21:37:39.075Z,21.03
2017-09-28T21:40:07.397Z,25.23
2017-09-28T21:42:36.515Z,26.30
2017-09-28T21:45:05.093Z,24.20
2017-09-28T21:47:35.078Z,23.33
2017-09-28T21:50:03.452Z,21.43
2017-09-28T21:52:32.712Z,23.17
2017-09-28T21:55:02.141Z,23.17
2017-09-28T21:57:30.470Z,25.43
2017-09-28T21:59:58.770Z,23.80
2017-09-28T22:02:27.098Z,25.20
2017-09-28T22:04:56.434Z,27.27
2017-09-28T22:07:25.537Z,22.33
2017-09-28T22:09:53.875Z,27.20
2017-09-28T22:12:22.224Z,22.97
2017-09-28T22:14:50.541Z,25.27
2017-09-28T22:17:19.020Z,22.93
2017-09-28T22:19:47.353Z,20.77
2017-09-28T22:22:15.617Z,24.30
2017-09-28T22:24:43.918Z,24.47
2017-09-28T22:27:13.033Z,24.20
2017-09-28T22:29:41.352Z,29.93
2017-09-28T22:32:09.654Z,24.33
2017-09-28T22:34:38.730Z,28.23
2017-09-28T22:37:07.027Z,24.80
2017-09-28T22:39:35.304Z,24.00
2017-09-28T22:42:04.439Z,33.10
2017-09-28T22:44:32.713Z,30.17
2017-09-28T22:47:00.996Z,27.47
2017-09-28T22:49:29.320Z,24.93
2017-09-28T22:51:57.621Z,23.67
2017-09-28T22:54:26.014Z,26.03
2017-09-28T22:56:54.286Z,25.20
2017-09-28T22:59:22.565Z,28.70
2017-09-28T23:01:50.845Z,28.63
2017-09-28T23:04:19.885Z,25.47
2017-09-28T23:06:48.319Z,23.60
2017-09-28T23:09:16.594Z,24.97
2017-09-28T23:11:44.878Z,28.40
2017-09-28T23:14:13.165Z,29.00
2017-09-28T23:16:41.447Z,24.73
2017-09-28T23:19:09.845Z,26.90
2017-09-28T23:21:38.937Z,25.80
2017-09-28T23:24:07.973Z,25.00
2017-09-28T23:26:36.274Z,29.50
2017-09-28T23:29:04.664Z,28.53
2017-09-28T23:31:32.981Z,27.67
2017-09-28T23:34:01.333Z,25.10
2017-09-28T23:36:29.602Z,25.87
2017-09-28T23:38:57.912Z,27.90
2017-09-28T23:41:26.251Z,26.00
2017-09-28T23:43:54.602Z,27.80
2017-09-28T23:46:22.873Z,28.27
2017-09-28T23:48:51.149Z,29.33
2017-09-28T23:51:19.537Z,27.40
2017-09-28T23:53:47.805Z,25.53
2017-09-28T23:56:16.137Z,25.77
2017-09-28T23:58:44.489Z,27.97
